createdAt,value
2022-10-19T00:01:27.126Z,82.42
2022-10-19T00:05:23.507Z,82.67
2022-10-19T00:08:44.685Z,82.58
2022-10-19T00:12:21.815Z,82.61
2022-10-19T00:16:19.309Z,82.75
2022-10-19T00:19:58.658Z,83.45
2022-10-19T00:23:38.574Z,83.81
2022-10-19T00:26:59.298Z,83.77
2022-10-19T00:30:56.778Z,83.93
2022-10-19T00:34:18.297Z,83.75
2022-10-19T00:37:55.174Z,84.20
2022-10-19T00:41:35.764Z,84.44
2022-10-19T00:45:29.469Z,84.71
2022-10-19T00:49:33.072Z,84.76
2022-10-19T00:53:12.810Z,85.00
2022-10-19T00:56:35.122Z,84.86
2022-10-19T01:00:11.866Z,84.85
2022-10-19T01:03:49.282Z,85.02
2022-10-19T01:07:27.838Z,85.10
2022-10-19T01:11:11.903Z,85.21
2022-10-19T01:15:13.727Z,85.46
2022-10-19T01:18:45.860Z,85.54
2022-10-19T01:22:41.599Z,85.28
2022-10-19T01:26:53.921Z,85.22
2022-10-19T01:30:52.466Z,85.16
2022-10-19T01:34:55.081Z,84.90
2022-10-19T01:38:34.362Z,84.90
2022-10-19T01:42:34.755Z,84.95
2022-10-19T01:46:30.362Z,85.29
2022-10-19T01:49:59.943Z,85.47
2022-10-19T01:53:40.869Z,85.24
2022-10-19T01:57:32.911Z,85.02
2022-10-19T02:00:55.924Z,85.29
2022-10-19T02:04:32.818Z,85.08
2022-10-19T02:08:14.046Z,85.06
2022-10-19T02:12:09.551Z,85.59
2022-10-19T02:15:52.942Z,85.80
2022-10-19T02:19:33.193Z,85.62
2022-10-19T02:22:53.956Z,85.52
2022-10-19T02:26:32.302Z,85.42
2022-10-19T02:30:13.345Z,85.40
2022-10-19T02:33:47.132Z,85.67
2022-10-19T02:37:25.685Z,85.64
2022-10-19T02:41:41.632Z,85.47
2022-10-19T02:45:05.233Z,85.44
2022-10-19T02:49:01.471Z,86.19
2022-10-19T02:52:22.382Z,86.04
2022-10-19T02:55:59.955Z,85.99
2022-10-19T02:59:37.631Z,86.62
2022-10-19T03:03:15.386Z,86.80
2022-10-19T03:06:53.020Z,86.82
2022-10-19T03:10:30.759Z,86.48
2022-10-19T03:14:08.430Z,86.15
2022-10-19T03:17:46.066Z,86.82
2022-10-19T03:21:23.806Z,86.79
2022-10-19T03:25:01.463Z,86.59
2022-10-19T03:28:59.022Z,86.65
2022-10-19T03:32:19.972Z,86.73
2022-10-19T03:36:19.767Z,86.55
2022-10-19T03:40:00.207Z,86.08
2022-10-19T03:43:20.722Z,85.84
2022-10-19T03:46:58.551Z,85.79
2022-10-19T03:51:00.683Z,85.79
2022-10-19T03:54:24.964Z,85.79
2022-10-19T03:57:59.222Z,85.87
2022-10-19T04:01:39.838Z,85.71
2022-10-19T04:05:14.797Z,85.67
2022-10-19T04:08:53.285Z,85.49
2022-10-19T04:12:30.004Z,85.64
2022-10-19T04:16:09.584Z,85.73
2022-10-19T04:19:45.253Z,86.00
2022-10-19T04:23:41.686Z,86.05
2022-10-19T04:27:02.267Z,86.18
2022-10-19T04:30:39.831Z,85.84
2022-10-19T04:34:39.211Z,85.84
2022-10-19T04:38:01.414Z,85.86
2022-10-19T04:41:39.495Z,86.01
2022-10-19T04:45:16.937Z,86.06
2022-10-19T04:49:16.420Z,86.27
2022-10-19T04:52:40.368Z,86.30
2022-10-19T04:56:21.116Z,86.11
2022-10-19T04:59:55.722Z,85.71
2022-10-19T05:03:33.358Z,85.46
2022-10-19T05:07:11.237Z,85.39
2022-10-19T05:10:48.764Z,85.52
2022-10-19T05:18:23.109Z,85.38
2022-10-19T05:21:43.855Z,85.04
2022-10-19T05:25:40.827Z,84.75
2022-10-19T05:29:02.956Z,84.81
2022-10-19T05:32:57.680Z,85.16
2022-10-19T05:36:21.081Z,85.51
2022-10-19T05:39:55.767Z,85.91
2022-10-19T05:44:00.170Z,86.37
2022-10-19T05:47:39.569Z,86.71
2022-10-19T05:51:20.611Z,87.01
2022-10-19T05:54:41.355Z,87.03
2022-10-19T05:58:19.145Z,87.23
2022-10-19T06:01:56.869Z,87.74
2022-10-19T06:05:36.793Z,87.72
2022-10-19T06:09:35.346Z,88.22
2022-10-19T06:13:15.928Z,88.55
2022-10-19T06:16:36.589Z,88.57
2022-10-19T06:20:14.622Z,88.77
2022-10-19T06:24:11.127Z,88.80
2022-10-19T06:27:32.271Z,88.98
2022-10-19T06:31:30.626Z,89.05
2022-10-19T06:34:56.350Z,89.49
2022-10-19T06:38:29.061Z,89.47
2022-10-19T06:42:06.739Z,89.43
2022-10-19T06:45:44.535Z,89.46
2022-10-19T06:49:22.919Z,89.19
2022-10-19T06:52:59.985Z,89.37
2022-10-19T06:56:37.509Z,89.18
2022-10-19T07:00:34.153Z,89.30
2022-10-19T07:03:55.485Z,89.71
2022-10-19T07:07:32.989Z,89.64
2022-10-19T07:11:29.320Z,89.75
2022-10-19T07:14:51.314Z,89.58
2022-10-19T07:18:47.004Z,89.49
2022-10-19T07:22:07.691Z,89.27
2022-10-19T07:25:45.239Z,89.19
2022-10-19T07:29:23.443Z,89.09
2022-10-19T07:33:19.358Z,89.21
2022-10-19T07:36:45.131Z,89.26
2022-10-19T07:40:17.978Z,89.25
2022-10-19T07:43:57.841Z,88.99
2022-10-19T07:47:34.548Z,88.80
2022-10-19T07:51:13.049Z,88.77
2022-10-19T07:54:49.781Z,88.84
2022-10-19T07:58:45.734Z,88.76
2022-10-19T08:02:14.228Z,88.54
2022-10-19T08:05:44.321Z,88.19
2022-10-19T08:09:52.890Z,87.90
2022-10-19T08:13:33.917Z,87.74
2022-10-19T08:16:54.605Z,87.63
2022-10-19T08:20:32.762Z,87.24
2022-10-19T08:24:11.694Z,86.63
2022-10-19T08:27:47.930Z,86.56
2022-10-19T08:31:25.254Z,86.64
2022-10-19T08:35:22.000Z,86.37
2022-10-19T08:38:44.967Z,85.89
2022-10-19T08:42:28.592Z,85.80
2022-10-19T08:46:14.209Z,85.83
2022-10-19T08:49:36.485Z,85.75
2022-10-19T08:53:43.516Z,85.64
2022-10-19T08:57:07.357Z,85.78
2022-10-19T09:00:47.427Z,85.46
2022-10-19T09:04:47.150Z,84.80
2022-10-19T09:08:13.094Z,84.63
2022-10-19T09:11:49.471Z,84.25
2022-10-19T09:15:46.595Z,84.45
2022-10-19T09:19:30.282Z,84.16
2022-10-19T09:23:20.769Z,83.30
2022-10-19T09:27:03.363Z,83.10
2022-10-19T09:30:30.116Z,83.07
2022-10-19T09:34:06.896Z,82.47
2022-10-19T09:37:45.680Z,82.38
2022-10-19T09:41:43.308Z,81.93
2022-10-19T09:45:29.051Z,80.44
2022-10-19T09:49:08.245Z,80.51
2022-10-19T09:53:15.381Z,79.83
2022-10-19T09:56:56.732Z,79.46
2022-10-19T10:00:23.104Z,78.80
2022-10-19T10:04:16.598Z,78.82
2022-10-19T10:07:56.014Z,77.44
2022-10-19T10:11:37.642Z,76.36
2022-10-19T10:14:58.398Z,75.47
2022-10-19T10:18:58.186Z,74.64
2022-10-19T10:22:33.112Z,75.02
2022-10-19T10:25:58.248Z,75.60
2022-10-19T10:29:36.780Z,74.77
2022-10-19T10:33:27.111Z,74.49
2022-10-19T10:36:59.993Z,73.77
2022-10-19T10:40:39.121Z,73.42
2022-10-19T10:44:20.908Z,73.70
2022-10-19T10:47:53.634Z,74.04
2022-10-19T10:51:35.287Z,73.96
2022-10-19T10:55:11.252Z,73.67
2022-10-19T10:58:57.057Z,73.09
2022-10-19T11:02:55.671Z,72.68
2022-10-19T11:06:44.401Z,73.09
2022-10-19T11:10:33.599Z,73.77
2022-10-19T11:14:49.413Z,74.01
2022-10-19T11:18:46.432Z,73.42
2022-10-19T11:22:26.251Z,73.38
2022-10-19T11:26:23.125Z,73.33
2022-10-19T11:30:05.941Z,73.50
2022-10-19T11:34:48.426Z,73.29
2022-10-19T11:38:24.159Z,72.88
2022-10-19T11:42:43.451Z,72.65
2022-10-19T11:46:32.037Z,72.51
2022-10-19T11:50:34.613Z,72.40
2022-10-19T11:54:53.901Z,72.63
2022-10-19T11:58:50.000Z,72.71
2022-10-19T12:02:42.807Z,72.80
2022-10-19T12:06:44.698Z,72.62
2022-10-19T12:10:41.131Z,71.87
2022-10-19T12:14:46.251Z,70.86
2022-10-19T12:18:48.800Z,69.07
2022-10-19T12:22:21.119Z,68.60
2022-10-19T12:25:53.229Z,67.65
2022-10-19T12:29:29.882Z,67.78
2022-10-19T12:33:44.899Z,67.74
2022-10-19T12:37:26.565Z,68.23
2022-10-19T12:41:02.120Z,68.75
2022-10-19T12:44:58.656Z,69.24
2022-10-19T12:48:44.772Z,69.04
2022-10-19T12:52:08.320Z,68.38
2022-10-19T12:56:31.547Z,68.45
2022-10-19T13:00:20.480Z,68.38
2022-10-19T13:03:47.346Z,68.30
2022-10-19T13:07:20.712Z,68.15
2022-10-19T13:11:14.835Z,68.46
2022-10-19T13:14:57.571Z,68.88
2022-10-19T13:19:00.036Z,68.97
2022-10-19T13:22:27.939Z,68.73
2022-10-19T13:26:44.582Z,68.42
2022-10-19T13:30:44.120Z,68.77
2022-10-19T13:34:25.311Z,69.53
2022-10-19T13:38:09.197Z,71.18
2022-10-19T13:41:46.143Z,72.16
2022-10-19T13:45:24.671Z,72.81
2022-10-19T13:49:02.407Z,73.35
2022-10-19T13:53:19.535Z,73.31
2022-10-19T13:57:39.827Z,73.13
2022-10-19T14:01:09.015Z,72.96
2022-10-19T14:04:57.004Z,72.99
2022-10-19T14:08:46.284Z,73.08
2022-10-19T14:12:24.827Z,73.00
2022-10-19T14:15:58.038Z,73.00
2022-10-19T14:19:46.824Z,72.67
2022-10-19T14:23:23.450Z,72.76
2022-10-19T14:26:48.562Z,72.99
2022-10-19T14:30:34.172Z,73.44
2022-10-19T14:34:15.014Z,73.90
2022-10-19T14:38:00.517Z,73.95
2022-10-19T14:41:28.304Z,73.80
2022-10-19T14:45:04.081Z,74.08
2022-10-19T14:49:05.341Z,74.12
2022-10-19T14:52:49.165Z,74.36
2022-10-19T15:00:24.115Z,74.90
2022-10-19T15:04:12.772Z,74.74
2022-10-19T15:07:41.292Z,74.65
2022-10-19T15:11:39.963Z,74.65
2022-10-19T15:15:16.769Z,74.79
2022-10-19T15:18:49.279Z,74.95
2022-10-19T15:22:39.694Z,74.84
2022-10-19T15:26:27.780Z,74.75
2022-10-19T15:30:23.515Z,74.64
2022-10-19T15:34:29.033Z,74.58
2022-10-19T15:38:05.697Z,75.08
2022-10-19T15:41:55.558Z,75.37
2022-10-19T15:45:36.393Z,75.45
2022-10-19T15:49:56.514Z,75.43
2022-10-19T15:53:25.210Z,75.35
2022-10-19T15:57:33.248Z,75.21
2022-10-19T16:01:19.594Z,75.45
2022-10-19T16:05:30.389Z,75.60
2022-10-19T16:08:58.717Z,76.09
2022-10-19T16:12:37.438Z,76.34
2022-10-19T16:16:12.234Z,76.96
2022-10-19T16:20:06.109Z,77.38
2022-10-19T16:23:30.509Z,78.29
2022-10-19T16:27:24.450Z,78.19
2022-10-19T16:30:50.947Z,78.40
2022-10-19T16:34:25.690Z,78.80
2022-10-19T16:38:00.839Z,78.57
2022-10-19T16:41:57.168Z,78.58
2022-10-19T16:45:23.891Z,78.41
2022-10-19T16:49:20.488Z,78.43
2022-10-19T16:52:44.226Z,78.78
2022-10-19T16:56:28.185Z,79.08
2022-10-19T17:00:03.006Z,79.34
2022-10-19T17:03:41.328Z,79.82
2022-10-19T17:07:26.066Z,80.04
2022-10-19T17:11:34.923Z,79.99
2022-10-19T17:15:41.427Z,80.15
2022-10-19T17:19:01.734Z,80.09
2022-10-19T17:22:37.495Z,79.96
2022-10-19T17:26:37.832Z,80.00
2022-10-19T17:30:18.406Z,80.34
2022-10-19T17:33:43.674Z,80.66
2022-10-19T17:37:38.750Z,81.03
2022-10-19T17:41:19.303Z,81.39
2022-10-19T17:44:40.260Z,81.62
2022-10-19T17:48:20.244Z,81.39
2022-10-19T17:52:04.270Z,81.32
2022-10-19T17:55:36.910Z,81.45
2022-10-19T17:59:12.378Z,81.53
2022-10-19T18:02:49.197Z,81.56
2022-10-19T18:06:34.730Z,81.84
2022-10-19T18:10:03.947Z,82.56
2022-10-19T18:14:06.335Z,82.32
2022-10-19T18:17:27.915Z,82.57
2022-10-19T18:21:11.464Z,82.14
2022-10-19T18:25:04.809Z,82.10
2022-10-19T18:28:29.255Z,82.05
2022-10-19T18:35:42.369Z,82.39
2022-10-19T18:39:21.106Z,82.39
2022-10-19T18:42:57.728Z,82.38
2022-10-19T18:46:57.881Z,82.12
2022-10-19T18:50:37.656Z,82.27
2022-10-19T18:57:56.111Z,81.97
2022-10-19T19:02:01.395Z,81.98
2022-10-19T19:05:24.009Z,82.42
2022-10-19T19:09:02.283Z,82.47
2022-10-19T19:12:38.787Z,82.49
2022-10-19T19:16:41.586Z,82.36
2022-10-19T19:20:23.493Z,82.34
2022-10-19T19:24:07.110Z,82.12
2022-10-19T19:27:31.581Z,82.38
2022-10-19T19:31:06.900Z,82.63
2022-10-19T19:35:08.974Z,82.90
2022-10-19T19:38:31.149Z,82.72
2022-10-19T19:42:08.953Z,82.12
2022-10-19T19:46:09.200Z,81.63
2022-10-19T19:49:50.911Z,81.29
2022-10-19T19:53:30.875Z,80.90
2022-10-19T19:57:00.549Z,80.66
2022-10-19T20:00:55.165Z,80.45
2022-10-19T20:04:41.829Z,80.34
2022-10-19T20:08:06.451Z,80.53
2022-10-19T20:11:42.604Z,81.04
2022-10-19T20:15:19.007Z,81.33
2022-10-19T20:19:05.481Z,81.38
2022-10-19T20:22:59.376Z,81.65
2022-10-19T20:26:41.726Z,81.55
2022-10-19T20:30:24.085Z,81.19
2022-10-19T20:34:12.506Z,80.95
2022-10-19T20:37:52.262Z,80.99
2022-10-19T20:41:35.356Z,81.05
2022-10-19T20:44:59.081Z,81.51
2022-10-19T20:48:59.181Z,81.89
2022-10-19T20:52:38.943Z,81.68
2022-10-19T20:56:29.537Z,81.43
2022-10-19T20:59:50.580Z,81.40
2022-10-19T21:03:28.708Z,81.31
2022-10-19T21:07:25.877Z,81.14
2022-10-19T21:11:37.481Z,81.11
2022-10-19T21:14:59.327Z,81.55
2022-10-19T21:18:37.434Z,81.63
2022-10-19T21:22:14.599Z,81.87
2022-10-19T21:26:17.128Z,82.08
2022-10-19T21:29:56.574Z,81.57
2022-10-19T21:33:36.050Z,81.52
2022-10-19T21:37:04.925Z,81.18
2022-10-19T21:40:39.507Z,81.33
2022-10-19T21:44:35.875Z,81.02
2022-10-19T21:47:56.620Z,80.94
2022-10-19T21:51:44.780Z,80.69
2022-10-19T21:55:34.542Z,81.01
2022-10-19T21:59:14.742Z,81.24
2022-10-19T22:02:36.089Z,81.15
2022-10-19T22:06:15.764Z,81.08
2022-10-19T22:10:00.768Z,80.94
2022-10-19T22:13:35.521Z,81.07
2022-10-19T22:17:08.953Z,80.92
2022-10-19T22:21:14.925Z,81.05
2022-10-19T22:24:54.821Z,81.14
2022-10-19T22:28:18.000Z,81.33
2022-10-19T22:31:53.140Z,81.33
2022-10-19T22:35:30.637Z,81.78
2022-10-19T22:39:29.337Z,82.73
2022-10-19T22:42:50.113Z,84.68
2022-10-19T22:46:27.919Z,84.87
2022-10-19T22:50:06.882Z,84.67
2022-10-19T22:53:43.232Z,84.62
2022-10-19T22:57:22.827Z,84.43
2022-10-19T23:01:17.341Z,84.74
2022-10-19T23:04:38.350Z,85.07
2022-10-19T23:08:16.254Z,85.29
2022-10-19T23:11:56.178Z,84.77
2022-10-19T23:15:51.020Z,84.00
2022-10-19T23:19:12.058Z,83.94
2022-10-19T23:23:08.396Z,83.53
2022-10-19T23:26:28.968Z,83.33
2022-10-19T23:30:26.558Z,83.15
2022-10-19T23:33:51.147Z,83.07
2022-10-19T23:37:25.773Z,83.15
2022-10-19T23:41:03.674Z,83.11
2022-10-19T23:44:40.527Z,83.05
2022-10-19T23:48:18.271Z,82.86
2022-10-19T23:51:55.826Z,82.68
2022-10-19T23:55:33.435Z,82.43
2022-10-19T23:59:11.177Z,82.16
